sensor_id;sensor_type;location;lat;lon;timestamp;P1;durP1;ratioP1;P2;durP2;ratioP2
70576;SDS011;58138;43.138;24.702;2023-02-03T00:00:36;2.70;;;1.80;;
70576;SDS011;58138;43.138;24.702;2023-02-03T00:03:01;1.17;;;1.08;;
70576;SDS011;58138;43.138;24.702;2023-02-03T00:05:29;4.25;;;2.30;;
70576;SDS011;58138;43.138;24.702;2023-02-03T00:07:56;3.78;;;1.40;;
70576;SDS011;58138;43.138;24.702;2023-02-03T00:10:22;2.00;;;1.30;;
70576;SDS011;58138;43.138;24.702;2023-02-03T00:12:48;5.53;;;2.17;;
70576;SDS011;58138;43.138;24.702;2023-02-03T00:15:16;3.92;;;2.00;;
70576;SDS011;58138;43.138;24.702;2023-02-03T00:17:43;3.72;;;2.00;;
70576;SDS011;58138;43.138;24.702;2023-02-03T00:20:11;1.30;;;1.15;;
70576;SDS011;58138;43.138;24.702;2023-02-03T00:22:37;2.13;;;1.67;;
70576;SDS011;58138;43.138;24.702;2023-02-03T00:25:03;1.65;;;1.20;;
70576;SDS011;58138;43.138;24.702;2023-02-03T00:27:32;3.35;;;2.10;;
70576;SDS011;58138;43.138;24.702;2023-02-03T00:29:57;3.35;;;2.03;;
70576;SDS011;58138;43.138;24.702;2023-02-03T00:32:23;2.45;;;1.48;;
70576;SDS011;58138;43.138;24.702;2023-02-03T00:34:52;2.42;;;1.58;;
70576;SDS011;58138;43.138;24.702;2023-02-03T00:37:18;5.07;;;2.63;;
70576;SDS011;58138;43.138;24.702;2023-02-03T00:39:43;6.18;;;2.70;;
70576;SDS011;58138;43.138;24.702;2023-02-03T00:42:10;4.72;;;1.98;;
70576;SDS011;58138;43.138;24.702;2023-02-03T00:44:39;3.63;;;2.00;;
70576;SDS011;58138;43.138;24.702;2023-02-03T00:47:04;3.95;;;2.20;;
70576;SDS011;58138;43.138;24.702;2023-02-03T00:49:30;3.20;;;2.00;;
70576;SDS011;58138;43.138;24.702;2023-02-03T00:52:00;5.35;;;2.35;;
70576;SDS011;58138;43.138;24.702;2023-02-03T00:54:26;4.78;;;2.28;;
70576;SDS011;58138;43.138;24.702;2023-02-03T00:56:51;5.40;;;2.65;;
70576;SDS011;58138;43.138;24.702;2023-02-03T00:59:19;4.07;;;2.22;;
70576;SDS011;58138;43.138;24.702;2023-02-03T01:01:45;3.00;;;2.03;;
70576;SDS011;58138;43.138;24.702;2023-02-03T01:04:13;5.03;;;2.38;;
70576;SDS011;58138;43.138;24.702;2023-02-03T01:06:42;3.95;;;1.98;;
70576;SDS011;58138;43.138;24.702;2023-02-03T01:09:09;6.38;;;2.10;;
70576;SDS011;58138;43.138;24.702;2023-02-03T01:11:35;4.05;;;1.67;;
70576;SDS011;58138;43.138;24.702;2023-02-03T01:14:01;3.78;;;2.03;;
70576;SDS011;58138;43.138;24.702;2023-02-03T01:16:28;3.60;;;2.13;;
70576;SDS011;58138;43.138;24.702;2023-02-03T01:18:55;4.38;;;2.35;;
70576;SDS011;58138;43.138;24.702;2023-02-03T01:21:23;3.70;;;2.58;;
70576;SDS011;58138;43.138;24.702;2023-02-03T01:23:49;3.17;;;1.83;;
70576;SDS011;58138;43.138;24.702;2023-02-03T01:26:16;3.35;;;2.30;;
70576;SDS011;58138;43.138;24.702;2023-02-03T01:28:43;4.13;;;2.60;;
70576;SDS011;58138;43.138;24.702;2023-02-03T01:31:15;3.45;;;2.10;;
70576;SDS011;58138;43.138;24.702;2023-02-03T01:33:42;3.80;;;1.85;;
70576;SDS011;58138;43.138;24.702;2023-02-03T01:36:13;3.42;;;2.40;;
70576;SDS011;58138;43.138;24.702;2023-02-03T01:38:41;7.57;;;1.85;;
70576;SDS011;58138;43.138;24.702;2023-02-03T01:41:09;3.22;;;2.10;;
70576;SDS011;58138;43.138;24.702;2023-02-03T01:43:39;3.80;;;2.13;;
70576;SDS011;58138;43.138;24.702;2023-02-03T01:49:06;4.13;;;1.80;;
70576;SDS011;58138;43.138;24.702;2023-02-03T01:51:47;4.20;;;1.95;;
70576;SDS011;58138;43.138;24.702;2023-02-03T01:54:15;2.17;;;1.75;;
70576;SDS011;58138;43.138;24.702;2023-02-03T01:56:47;5.95;;;2.38;;
70576;SDS011;58138;43.138;24.702;2023-02-03T01:59:19;1.90;;;1.20;;
70576;SDS011;58138;43.138;24.702;2023-02-03T02:01:50;3.35;;;1.30;;
70576;SDS011;58138;43.138;24.702;2023-02-03T02:04:17;2.75;;;2.10;;
70576;SDS011;58138;43.138;24.702;2023-02-03T02:06:43;3.03;;;1.60;;
70576;SDS011;58138;43.138;24.702;2023-02-03T02:09:12;3.17;;;2.20;;
70576;SDS011;58138;43.138;24.702;2023-02-03T02:11:39;3.38;;;1.90;;
70576;SDS011;58138;43.138;24.702;2023-02-03T02:14:05;2.72;;;1.67;;
70576;SDS011;58138;43.138;24.702;2023-02-03T02:33:01;4.68;;;2.45;;
70576;SDS011;58138;43.138;24.702;2023-02-03T02:40:43;3.65;;;1.75;;
70576;SDS011;58138;43.138;24.702;2023-02-03T02:43:22;3.42;;;2.35;;
70576;SDS011;58138;43.138;24.702;2023-02-03T02:45:53;4.57;;;2.50;;
70576;SDS011;58138;43.138;24.702;2023-02-03T02:49:22;6.45;;;1.83;;
70576;SDS011;58138;43.138;24.702;2023-02-03T02:51:21;4.85;;;1.95;;
70576;SDS011;58138;43.138;24.702;2023-02-03T02:53:55;5.32;;;2.35;;
70576;SDS011;58138;43.138;24.702;2023-02-03T02:56:24;2.70;;;1.63;;
70576;SDS011;58138;43.138;24.702;2023-02-03T02:58:52;3.42;;;2.08;;
70576;SDS011;58138;43.138;24.702;2023-02-03T03:01:19;3.00;;;2.22;;
70576;SDS011;58138;43.138;24.702;2023-02-03T03:03:45;2.47;;;1.95;;
70576;SDS011;58138;43.138;24.702;2023-02-03T03:06:21;4.65;;;2.75;;
70576;SDS011;58138;43.138;24.702;2023-02-03T03:09:10;5.15;;;2.53;;
70576;SDS011;58138;43.138;24.702;2023-02-03T03:11:44;4.72;;;2.67;;
70576;SDS011;58138;43.138;24.702;2023-02-03T03:14:12;4.72;;;2.67;;
70576;SDS011;58138;43.138;24.702;2023-02-03T03:16:41;3.55;;;1.95;;
70576;SDS011;58138;43.138;24.702;2023-02-03T03:19:17;6.32;;;2.55;;
70576;SDS011;58138;43.138;24.702;2023-02-03T03:21:46;6.53;;;2.60;;
70576;SDS011;58138;43.138;24.702;2023-02-03T03:24:26;3.50;;;2.47;;
70576;SDS011;58138;43.138;24.702;2023-02-03T03:26:58;5.93;;;3.58;;
70576;SDS011;58138;43.138;24.702;2023-02-03T03:29:35;3.83;;;2.60;;
70576;SDS011;58138;43.138;24.702;2023-02-03T03:32:07;5.65;;;3.70;;
70576;SDS011;58138;43.138;24.702;2023-02-03T03:34:32;6.00;;;3.53;;
70576;SDS011;58138;43.138;24.702;2023-02-03T03:40:09;6.03;;;3.70;;
70576;SDS011;58138;43.138;24.702;2023-02-03T03:42:24;6.63;;;3.65;;
70576;SDS011;58138;43.138;24.702;2023-02-03T03:47:55;6.22;;;3.22;;
70576;SDS011;58138;43.138;24.702;2023-02-03T03:50:28;5.55;;;3.70;;
70576;SDS011;58138;43.138;24.702;2023-02-03T03:52:58;6.38;;;4.05;;
70576;SDS011;58138;43.138;24.702;2023-02-03T03:55:28;4.15;;;3.50;;
70576;SDS011;58138;43.138;24.702;2023-02-03T03:57:58;5.03;;;3.88;;
70576;SDS011;58138;43.138;24.702;2023-02-03T04:00:35;7.28;;;4.13;;
70576;SDS011;58138;43.138;24.702;2023-02-03T04:03:06;10.70;;;7.20;;
70576;SDS011;58138;43.138;24.702;2023-02-03T04:05:37;4.35;;;3.55;;
70576;SDS011;58138;43.138;24.702;2023-02-03T04:08:06;7.20;;;4.30;;
70576;SDS011;58138;43.138;24.702;2023-02-03T04:10:36;7.10;;;4.70;;
70576;SDS011;58138;43.138;24.702;2023-02-03T04:13:04;6.18;;;3.20;;
70576;SDS011;58138;43.138;24.702;2023-02-03T04:15:30;8.15;;;4.45;;
70576;SDS011;58138;43.138;24.702;2023-02-03T04:17:56;6.88;;;3.95;;
70576;SDS011;58138;43.138;24.702;2023-02-03T04:20:23;7.68;;;4.82;;
70576;SDS011;58138;43.138;24.702;2023-02-03T04:22:49;11.10;;;6.22;;
70576;SDS011;58138;43.138;24.702;2023-02-03T04:25:15;10.05;;;4.57;;
70576;SDS011;58138;43.138;24.702;2023-02-03T04:27:41;8.07;;;4.53;;
70576;SDS011;58138;43.138;24.702;2023-02-03T04:30:10;9.43;;;3.97;;
70576;SDS011;58138;43.138;24.702;2023-02-03T04:32:36;9.95;;;5.63;;
70576;SDS011;58138;43.138;24.702;2023-02-03T04:35:03;5.95;;;4.68;;
70576;SDS011;58138;43.138;24.702;2023-02-03T04:37:31;8.07;;;3.92;;
70576;SDS011;58138;43.138;24.702;2023-02-03T04:39:57;4.35;;;3.47;;
70576;SDS011;58138;43.138;24.702;2023-02-03T04:42:23;5.50;;;4.28;;
70576;SDS011;58138;43.138;24.702;2023-02-03T04:44:53;7.47;;;4.82;;
70576;SDS011;58138;43.138;24.702;2023-02-03T04:47:21;7.22;;;5.00;;
70576;SDS011;58138;43.138;24.702;2023-02-03T04:49:48;6.03;;;3.88;;
70576;SDS011;58138;43.138;24.702;2023-02-03T04:52:14;7.82;;;5.25;;
70576;SDS011;58138;43.138;24.702;2023-02-03T04:54:43;6.32;;;4.07;;
70576;SDS011;58138;43.138;24.702;2023-02-03T04:57:09;6.45;;;4.60;;
70576;SDS011;58138;43.138;24.702;2023-02-03T04:59:35;7.25;;;4.97;;
70576;SDS011;58138;43.138;24.702;2023-02-03T05:02:02;9.52;;;6.20;;
70576;SDS011;58138;43.138;24.702;2023-02-03T05:04:29;8.52;;;5.50;;
70576;SDS011;58138;43.138;24.702;2023-02-03T05:06:55;8.15;;;5.07;;
70576;SDS011;58138;43.138;24.702;2023-02-03T05:09:22;7.22;;;4.25;;
70576;SDS011;58138;43.138;24.702;2023-02-03T05:11:48;6.88;;;4.70;;
70576;SDS011;58138;43.138;24.702;2023-02-03T05:14:14;6.35;;;4.10;;
70576;SDS011;58138;43.138;24.702;2023-02-03T05:16:41;6.10;;;3.90;;
70576;SDS011;58138;43.138;24.702;2023-02-03T05:19:07;3.67;;;3.10;;
70576;SDS011;58138;43.138;24.702;2023-02-03T05:21:32;7.78;;;4.40;;
70576;SDS011;58138;43.138;24.702;2023-02-03T05:23:58;6.32;;;4.53;;
70576;SDS011;58138;43.138;24.702;2023-02-03T05:26:25;7.30;;;4.90;;
70576;SDS011;58138;43.138;24.702;2023-02-03T05:28:51;7.28;;;4.82;;
70576;SDS011;58138;43.138;24.702;2023-02-03T05:31:16;8.23;;;6.20;;
70576;SDS011;58138;43.138;24.702;2023-02-03T05:33:42;4.00;;;3.20;;
70576;SDS011;58138;43.138;24.702;2023-02-03T05:36:08;6.28;;;4.85;;
70576;SDS011;58138;43.138;24.702;2023-02-03T05:38:35;5.63;;;4.50;;
70576;SDS011;58138;43.138;24.702;2023-02-03T05:41:01;7.63;;;5.40;;
70576;SDS011;58138;43.138;24.702;2023-02-03T05:43:45;8.02;;;4.88;;
70576;SDS011;58138;43.138;24.702;2023-02-03T05:46:12;7.93;;;5.20;;
70576;SDS011;58138;43.138;24.702;2023-02-03T05:48:48;9.45;;;5.95;;
70576;SDS011;58138;43.138;24.702;2023-02-03T05:51:17;7.78;;;5.57;;
70576;SDS011;58138;43.138;24.702;2023-02-03T05:53:43;13.30;;;5.70;;
70576;SDS011;58138;43.138;24.702;2023-02-03T05:56:09;7.00;;;5.50;;
70576;SDS011;58138;43.138;24.702;2023-02-03T05:58:39;6.55;;;5.30;;
70576;SDS011;58138;43.138;24.702;2023-02-03T06:01:04;6.75;;;5.68;;
70576;SDS011;58138;43.138;24.702;2023-02-03T06:03:32;10.05;;;6.65;;
70576;SDS011;58138;43.138;24.702;2023-02-03T06:05:58;10.80;;;5.72;;
70576;SDS011;58138;43.138;24.702;2023-02-03T06:08:24;6.13;;;4.88;;
70576;SDS011;58138;43.138;24.702;2023-02-03T06:10:57;8.00;;;5.68;;
70576;SDS011;58138;43.138;24.702;2023-02-03T06:13:25;6.47;;;4.47;;
70576;SDS011;58138;43.138;24.702;2023-02-03T06:15:51;9.07;;;5.90;;
70576;SDS011;58138;43.138;24.702;2023-02-03T06:18:17;9.27;;;6.30;;
70576;SDS011;58138;43.138;24.702;2023-02-03T06:20:43;7.57;;;5.78;;
70576;SDS011;58138;43.138;24.702;2023-02-03T06:23:08;9.18;;;6.30;;
70576;SDS011;58138;43.138;24.702;2023-02-03T06:25:34;8.40;;;5.72;;
70576;SDS011;58138;43.138;24.702;2023-02-03T06:28:00;9.00;;;5.57;;
70576;SDS011;58138;43.138;24.702;2023-02-03T06:30:26;8.00;;;5.85;;
70576;SDS011;58138;43.138;24.702;2023-02-03T06:32:54;9.70;;;5.68;;
70576;SDS011;58138;43.138;24.702;2023-02-03T06:35:20;8.02;;;5.60;;
70576;SDS011;58138;43.138;24.702;2023-02-03T06:37:46;4.03;;;3.42;;
70576;SDS011;58138;43.138;24.702;2023-02-03T06:40:12;6.25;;;4.47;;
70576;SDS011;58138;43.138;24.702;2023-02-03T06:42:39;9.55;;;6.75;;
70576;SDS011;58138;43.138;24.702;2023-02-03T06:45:05;13.68;;;7.85;;
70576;SDS011;58138;43.138;24.702;2023-02-03T06:47:32;8.95;;;6.20;;
70576;SDS011;58138;43.138;24.702;2023-02-03T06:50:00;8.90;;;6.25;;
70576;SDS011;58138;43.138;24.702;2023-02-03T06:52:25;11.57;;;7.20;;
70576;SDS011;58138;43.138;24.702;2023-02-03T06:54:53;14.35;;;6.50;;
70576;SDS011;58138;43.138;24.702;2023-02-03T06:57:19;13.60;;;9.45;;
70576;SDS011;58138;43.138;24.702;2023-02-03T06:59:45;8.85;;;6.00;;
70576;SDS011;58138;43.138;24.702;2023-02-03T07:02:10;10.00;;;6.80;;
70576;SDS011;58138;43.138;24.702;2023-02-03T07:04:37;14.00;;;8.43;;
70576;SDS011;58138;43.138;24.702;2023-02-03T07:07:05;10.38;;;7.43;;
70576;SDS011;58138;43.138;24.702;2023-02-03T07:09:32;7.43;;;5.50;;
70576;SDS011;58138;43.138;24.702;2023-02-03T07:11:57;7.15;;;5.13;;
70576;SDS011;58138;43.138;24.702;2023-02-03T07:14:23;11.30;;;7.15;;
70576;SDS011;58138;43.138;24.702;2023-02-03T07:16:49;9.60;;;6.60;;
70576;SDS011;58138;43.138;24.702;2023-02-03T07:19:20;8.25;;;5.78;;
70576;SDS011;58138;43.138;24.702;2023-02-03T07:21:46;12.75;;;5.13;;
70576;SDS011;58138;43.138;24.702;2023-02-03T07:24:11;12.82;;;7.22;;
70576;SDS011;58138;43.138;24.702;2023-02-03T07:26:37;9.43;;;6.88;;
70576;SDS011;58138;43.138;24.702;2023-02-03T07:29:03;8.75;;;5.05;;
70576;SDS011;58138;43.138;24.702;2023-02-03T07:31:29;8.77;;;6.07;;
70576;SDS011;58138;43.138;24.702;2023-02-03T07:34:00;13.15;;;7.07;;
70576;SDS011;58138;43.138;24.702;2023-02-03T07:36:27;10.50;;;7.65;;
70576;SDS011;58138;43.138;24.702;2023-02-03T07:38:53;11.30;;;7.57;;
70576;SDS011;58138;43.138;24.702;2023-02-03T07:41:19;11.10;;;6.10;;
70576;SDS011;58138;43.138;24.702;2023-02-03T07:43:45;13.52;;;7.82;;
70576;SDS011;58138;43.138;24.702;2023-02-03T07:46:11;9.02;;;6.63;;
70576;SDS011;58138;43.138;24.702;2023-02-03T07:48:37;8.32;;;6.15;;
70576;SDS011;58138;43.138;24.702;2023-02-03T07:51:05;10.63;;;7.03;;
70576;SDS011;58138;43.138;24.702;2023-02-03T07:53:31;10.15;;;6.32;;
70576;SDS011;58138;43.138;24.702;2023-02-03T07:56:01;7.40;;;5.53;;
70576;SDS011;58138;43.138;24.702;2023-02-03T07:58:29;6.18;;;4.30;;
70576;SDS011;58138;43.138;24.702;2023-02-03T08:00:56;12.57;;;6.32;;
70576;SDS011;58138;43.138;24.702;2023-02-03T08:03:22;7.07;;;4.28;;
70576;SDS011;58138;43.138;24.702;2023-02-03T08:05:49;10.32;;;6.90;;
70576;SDS011;58138;43.138;24.702;2023-02-03T08:08:16;6.13;;;4.85;;
70576;SDS011;58138;43.138;24.702;2023-02-03T08:10:42;5.93;;;3.80;;
70576;SDS011;58138;43.138;24.702;2023-02-03T08:13:08;9.38;;;5.68;;
70576;SDS011;58138;43.138;24.702;2023-02-03T08:15:33;8.35;;;6.57;;
70576;SDS011;58138;43.138;24.702;2023-02-03T08:17:59;6.78;;;5.45;;
70576;SDS011;58138;43.138;24.702;2023-02-03T08:20:25;6.05;;;4.43;;
70576;SDS011;58138;43.138;24.702;2023-02-03T08:22:51;7.90;;;5.15;;
70576;SDS011;58138;43.138;24.702;2023-02-03T08:25:17;11.80;;;7.97;;
70576;SDS011;58138;43.138;24.702;2023-02-03T08:27:42;13.35;;;7.95;;
70576;SDS011;58138;43.138;24.702;2023-02-03T08:30:10;13.32;;;7.60;;
70576;SDS011;58138;43.138;24.702;2023-02-03T08:32:37;14.68;;;5.38;;
70576;SDS011;58138;43.138;24.702;2023-02-03T08:35:03;6.63;;;5.05;;
70576;SDS011;58138;43.138;24.702;2023-02-03T08:37:29;8.20;;;5.72;;
70576;SDS011;58138;43.138;24.702;2023-02-03T08:39:56;5.68;;;4.03;;
70576;SDS011;58138;43.138;24.702;2023-02-03T08:42:23;7.00;;;4.13;;
70576;SDS011;58138;43.138;24.702;2023-02-03T08:44:49;5.18;;;3.95;;
70576;SDS011;58138;43.138;24.702;2023-02-03T08:47:15;5.90;;;4.47;;
70576;SDS011;58138;43.138;24.702;2023-02-03T08:49:41;5.82;;;4.90;;
70576;SDS011;58138;43.138;24.702;2023-02-03T08:52:09;5.88;;;4.32;;
70576;SDS011;58138;43.138;24.702;2023-02-03T08:54:35;6.07;;;4.38;;
70576;SDS011;58138;43.138;24.702;2023-02-03T08:57:01;9.35;;;6.68;;
70576;SDS011;58138;43.138;24.702;2023-02-03T08:59:27;7.65;;;4.43;;
70576;SDS011;58138;43.138;24.702;2023-02-03T09:01:54;6.45;;;4.13;;
70576;SDS011;58138;43.138;24.702;2023-02-03T09:04:20;8.68;;;5.32;;
70576;SDS011;58138;43.138;24.702;2023-02-03T09:06:49;9.07;;;4.38;;
70576;SDS011;58138;43.138;24.702;2023-02-03T09:09:16;8.45;;;4.85;;
70576;SDS011;58138;43.138;24.702;2023-02-03T09:11:42;7.13;;;4.65;;
70576;SDS011;58138;43.138;24.702;2023-02-03T09:14:08;10.35;;;5.13;;
70576;SDS011;58138;43.138;24.702;2023-02-03T09:16:34;4.13;;;2.78;;
70576;SDS011;58138;43.138;24.702;2023-02-03T09:19:00;5.95;;;3.97;;
70576;SDS011;58138;43.138;24.702;2023-02-03T09:21:26;3.50;;;3.15;;
70576;SDS011;58138;43.138;24.702;2023-02-03T09:23:51;6.15;;;4.18;;
70576;SDS011;58138;43.138;24.702;2023-02-03T09:26:17;4.45;;;3.47;;
70576;SDS011;58138;43.138;24.702;2023-02-03T09:28:44;4.25;;;3.40;;
70576;SDS011;58138;43.138;24.702;2023-02-03T09:31:11;13.30;;;7.30;;
70576;SDS011;58138;43.138;24.702;2023-02-03T09:33:39;8.70;;;4.70;;
70576;SDS011;58138;43.138;24.702;2023-02-03T09:36:06;5.75;;;3.97;;
70576;SDS011;58138;43.138;24.702;2023-02-03T09:38:32;7.82;;;4.20;;
70576;SDS011;58138;43.138;24.702;2023-02-03T09:41:21;12.23;;;6.85;;
70576;SDS011;58138;43.138;24.702;2023-02-03T09:47:03;7.57;;;4.53;;
70576;SDS011;58138;43.138;24.702;2023-02-03T09:52:13;10.95;;;5.50;;
70576;SDS011;58138;43.138;24.702;2023-02-03T09:57:33;7.75;;;3.97;;
70576;SDS011;58138;43.138;24.702;2023-02-03T10:00:02;9.30;;;4.55;;
70576;SDS011;58138;43.138;24.702;2023-02-03T10:02:56;8.15;;;4.10;;
70576;SDS011;58138;43.138;24.702;2023-02-03T10:11:12;6.60;;;3.50;;
70576;SDS011;58138;43.138;24.702;2023-02-03T10:19:00;5.55;;;3.78;;
70576;SDS011;58138;43.138;24.702;2023-02-03T10:21:32;4.93;;;3.90;;
70576;SDS011;58138;43.138;24.702;2023-02-03T10:24:02;5.07;;;3.70;;
70576;SDS011;58138;43.138;24.702;2023-02-03T10:26:31;6.50;;;3.15;;
70576;SDS011;58138;43.138;24.702;2023-02-03T10:28:57;8.82;;;4.30;;
70576;SDS011;58138;43.138;24.702;2023-02-03T10:31:31;10.32;;;5.93;;
70576;SDS011;58138;43.138;24.702;2023-02-03T10:33:59;4.93;;;3.25;;
70576;SDS011;58138;43.138;24.702;2023-02-03T10:36:36;14.55;;;7.40;;
70576;SDS011;58138;43.138;24.702;2023-02-03T10:42:08;6.60;;;4.35;;
70576;SDS011;58138;43.138;24.702;2023-02-03T10:44:36;11.23;;;6.50;;
70576;SDS011;58138;43.138;24.702;2023-02-03T10:49:50;7.53;;;4.65;;
70576;SDS011;58138;43.138;24.702;2023-02-03T10:54:56;6.03;;;4.15;;
70576;SDS011;58138;43.138;24.702;2023-02-03T10:57:23;4.10;;;2.75;;
70576;SDS011;58138;43.138;24.702;2023-02-03T10:59:50;6.15;;;3.60;;
70576;SDS011;58138;43.138;24.702;2023-02-03T11:02:22;5.85;;;3.55;;
70576;SDS011;58138;43.138;24.702;2023-02-03T11:07:41;7.13;;;4.50;;
70576;SDS011;58138;43.138;24.702;2023-02-03T11:16:15;4.30;;;3.30;;
70576;SDS011;58138;43.138;24.702;2023-02-03T11:19:33;6.40;;;4.25;;
70576;SDS011;58138;43.138;24.702;2023-02-03T11:21:50;6.55;;;4.47;;
70576;SDS011;58138;43.138;24.702;2023-02-03T11:24:21;4.53;;;3.10;;
70576;SDS011;58138;43.138;24.702;2023-02-03T11:26:50;4.45;;;3.55;;
70576;SDS011;58138;43.138;24.702;2023-02-03T11:29:34;6.15;;;3.72;;
70576;SDS011;58138;43.138;24.702;2023-02-03T11:32:34;6.32;;;3.58;;
70576;SDS011;58138;43.138;24.702;2023-02-03T11:37:50;9.75;;;5.35;;
70576;SDS011;58138;43.138;24.702;2023-02-03T11:40:30;6.55;;;4.22;;
70576;SDS011;58138;43.138;24.702;2023-02-03T11:42:59;5.70;;;3.90;;
70576;SDS011;58138;43.138;24.702;2023-02-03T11:45:38;8.00;;;4.85;;
70576;SDS011;58138;43.138;24.702;2023-02-03T11:53:29;6.57;;;4.47;;
70576;SDS011;58138;43.138;24.702;2023-02-03T12:27:09;5.65;;;3.45;;
70576;SDS011;58138;43.138;24.702;2023-02-03T12:30:12;6.15;;;4.22;;
70576;SDS011;58138;43.138;24.702;2023-02-03T12:41:48;6.53;;;4.30;;
70576;SDS011;58138;43.138;24.702;2023-02-03T12:44:22;6.90;;;3.85;;
70576;SDS011;58138;43.138;24.702;2023-02-03T12:47:05;7.00;;;4.13;;
70576;SDS011;58138;43.138;24.702;2023-02-03T12:52:16;6.35;;;3.20;;
70576;SDS011;58138;43.138;24.702;2023-02-03T12:54:55;8.23;;;5.10;;
70576;SDS011;58138;43.138;24.702;2023-02-03T12:57:54;3.25;;;2.47;;
70576;SDS011;58138;43.138;24.702;2023-02-03T13:00:47;5.82;;;3.65;;
70576;SDS011;58138;43.138;24.702;2023-02-03T13:05:58;5.68;;;3.22;;
70576;SDS011;58138;43.138;24.702;2023-02-03T13:08:36;10.93;;;6.40;;
70576;SDS011;58138;43.138;24.702;2023-02-03T13:14:16;6.43;;;3.58;;
70576;SDS011;58138;43.138;24.702;2023-02-03T13:16:48;4.18;;;3.22;;
70576;SDS011;58138;43.138;24.702;2023-02-03T13:19:18;4.22;;;3.45;;
70576;SDS011;58138;43.138;24.702;2023-02-03T13:21:49;4.75;;;3.45;;
70576;SDS011;58138;43.138;24.702;2023-02-03T13:24:18;6.90;;;4.07;;
70576;SDS011;58138;43.138;24.702;2023-02-03T13:30:02;6.55;;;4.10;;
70576;SDS011;58138;43.138;24.702;2023-02-03T13:35:31;4.35;;;3.40;;
70576;SDS011;58138;43.138;24.702;2023-02-03T13:43:43;9.75;;;4.65;;
70576;SDS011;58138;43.138;24.702;2023-02-03T13:46:45;8.65;;;4.60;;
70576;SDS011;58138;43.138;24.702;2023-02-03T13:49:04;12.90;;;4.50;;
70576;SDS011;58138;43.138;24.702;2023-02-03T13:51:31;9.43;;;5.28;;
70576;SDS011;58138;43.138;24.702;2023-02-03T13:54:00;6.85;;;4.00;;
70576;SDS011;58138;43.138;24.702;2023-02-03T13:56:29;5.00;;;3.85;;
70576;SDS011;58138;43.138;24.702;2023-02-03T13:59:00;16.17;;;5.72;;
70576;SDS011;58138;43.138;24.702;2023-02-03T14:01:28;7.53;;;4.97;;
70576;SDS011;58138;43.138;24.702;2023-02-03T14:03:55;11.98;;;4.53;;
70576;SDS011;58138;43.138;24.702;2023-02-03T14:14:40;6.13;;;4.60;;
70576;SDS011;58138;43.138;24.702;2023-02-03T14:25:42;8.45;;;5.03;;
70576;SDS011;58138;43.138;24.702;2023-02-03T14:28:23;5.75;;;3.58;;
70576;SDS011;58138;43.138;24.702;2023-02-03T14:31:03;5.95;;;4.22;;
70576;SDS011;58138;43.138;24.702;2023-02-03T14:33:53;8.95;;;5.20;;
70576;SDS011;58138;43.138;24.702;2023-02-03T14:36:28;7.88;;;4.38;;
70576;SDS011;58138;43.138;24.702;2023-02-03T14:39:46;12.65;;;5.55;;
70576;SDS011;58138;43.138;24.702;2023-02-03T14:47:24;12.68;;;8.73;;
70576;SDS011;58138;43.138;24.702;2023-02-03T14:55:57;13.43;;;7.03;;
70576;SDS011;58138;43.138;24.702;2023-02-03T14:58:48;15.27;;;9.30;;
70576;SDS011;58138;43.138;24.702;2023-02-03T15:01:24;15.10;;;8.82;;
70576;SDS011;58138;43.138;24.702;2023-02-03T15:06:40;11.30;;;6.68;;
70576;SDS011;58138;43.138;24.702;2023-02-03T15:09:56;16.67;;;8.75;;
70576;SDS011;58138;43.138;24.702;2023-02-03T15:12:17;15.82;;;8.88;;
70576;SDS011;58138;43.138;24.702;2023-02-03T15:14:43;15.23;;;6.88;;
70576;SDS011;58138;43.138;24.702;2023-02-03T15:17:23;11.15;;;6.82;;
70576;SDS011;58138;43.138;24.702;2023-02-03T15:19:52;10.68;;;6.07;;
70576;SDS011;58138;43.138;24.702;2023-02-03T15:25:01;17.13;;;9.48;;
70576;SDS011;58138;43.138;24.702;2023-02-03T15:27:29;12.80;;;7.53;;
70576;SDS011;58138;43.138;24.702;2023-02-03T15:29:55;18.30;;;9.95;;
70576;SDS011;58138;43.138;24.702;2023-02-03T15:34:50;20.85;;;13.13;;
70576;SDS011;58138;43.138;24.702;2023-02-03T15:37:19;22.40;;;12.20;;
70576;SDS011;58138;43.138;24.702;2023-02-03T15:40:05;15.07;;;9.85;;
70576;SDS011;58138;43.138;24.702;2023-02-03T15:45:42;40.08;;;20.77;;
70576;SDS011;58138;43.138;24.702;2023-02-03T15:50:55;30.90;;;13.77;;
70576;SDS011;58138;43.138;24.702;2023-02-03T15:53:57;23.73;;;8.52;;
70576;SDS011;58138;43.138;24.702;2023-02-03T15:56:35;22.67;;;10.73;;
70576;SDS011;58138;43.138;24.702;2023-02-03T15:59:23;41.80;;;21.10;;
70576;SDS011;58138;43.138;24.702;2023-02-03T16:01:51;16.58;;;7.47;;
70576;SDS011;58138;43.138;24.702;2023-02-03T16:04:21;9.30;;;4.82;;
70576;SDS011;58138;43.138;24.702;2023-02-03T16:06:48;21.17;;;10.55;;
70576;SDS011;58138;43.138;24.702;2023-02-03T16:09:29;31.10;;;7.78;;
70576;SDS011;58138;43.138;24.702;2023-02-03T16:14:45;7.13;;;4.78;;
70576;SDS011;58138;43.138;24.702;2023-02-03T16:17:30;20.45;;;11.95;;
70576;SDS011;58138;43.138;24.702;2023-02-03T16:22:37;26.70;;;10.88;;
70576;SDS011;58138;43.138;24.702;2023-02-03T16:25:20;21.85;;;9.48;;
70576;SDS011;58138;43.138;24.702;2023-02-03T16:30:58;23.30;;;12.77;;
70576;SDS011;58138;43.138;24.702;2023-02-03T16:33:48;20.40;;;12.80;;
70576;SDS011;58138;43.138;24.702;2023-02-03T16:36:38;16.30;;;9.48;;
70576;SDS011;58138;43.138;24.702;2023-02-03T16:39:24;13.68;;;6.57;;
70576;SDS011;58138;43.138;24.702;2023-02-03T16:42:15;16.35;;;9.80;;
70576;SDS011;58138;43.138;24.702;2023-02-03T16:45:02;17.20;;;9.65;;
70576;SDS011;58138;43.138;24.702;2023-02-03T16:47:49;12.45;;;7.30;;
70576;SDS011;58138;43.138;24.702;2023-02-03T16:50:33;17.38;;;9.50;;
70576;SDS011;58138;43.138;24.702;2023-02-03T16:53:19;10.60;;;7.75;;
70576;SDS011;58138;43.138;24.702;2023-02-03T16:55:48;15.48;;;7.43;;
70576;SDS011;58138;43.138;24.702;2023-02-03T16:58:14;9.70;;;6.47;;
70576;SDS011;58138;43.138;24.702;2023-02-03T17:00:41;16.45;;;10.07;;
70576;SDS011;58138;43.138;24.702;2023-02-03T17:03:12;32.78;;;12.35;;
70576;SDS011;58138;43.138;24.702;2023-02-03T17:05:40;28.73;;;13.25;;
70576;SDS011;58138;43.138;24.702;2023-02-03T17:08:07;30.58;;;14.95;;
70576;SDS011;58138;43.138;24.702;2023-02-03T17:10:33;9.63;;;5.82;;
70576;SDS011;58138;43.138;24.702;2023-02-03T17:13:03;27.05;;;15.00;;
70576;SDS011;58138;43.138;24.702;2023-02-03T17:15:29;28.58;;;13.63;;
70576;SDS011;58138;43.138;24.702;2023-02-03T17:17:56;31.10;;;15.73;;
70576;SDS011;58138;43.138;24.702;2023-02-03T17:20:22;27.20;;;19.05;;
70576;SDS011;58138;43.138;24.702;2023-02-03T17:22:48;27.75;;;13.02;;
70576;SDS011;58138;43.138;24.702;2023-02-03T17:25:17;33.20;;;17.45;;
70576;SDS011;58138;43.138;24.702;2023-02-03T17:27:43;27.23;;;13.98;;
70576;SDS011;58138;43.138;24.702;2023-02-03T17:30:09;34.17;;;16.45;;
70576;SDS011;58138;43.138;24.702;2023-02-03T17:32:37;29.83;;;15.70;;
70576;SDS011;58138;43.138;24.702;2023-02-03T17:35:03;21.15;;;13.65;;
70576;SDS011;58138;43.138;24.702;2023-02-03T17:37:32;41.72;;;19.58;;
70576;SDS011;58138;43.138;24.702;2023-02-03T17:39:59;43.72;;;18.95;;
70576;SDS011;58138;43.138;24.702;2023-02-03T17:42:25;50.55;;;21.77;;
70576;SDS011;58138;43.138;24.702;2023-02-03T17:44:51;49.88;;;23.42;;
70576;SDS011;58138;43.138;24.702;2023-02-03T17:47:18;41.33;;;19.88;;
70576;SDS011;58138;43.138;24.702;2023-02-03T17:49:44;57.38;;;24.02;;
70576;SDS011;58138;43.138;24.702;2023-02-03T17:52:12;41.95;;;22.25;;